Time;durP1;ratioP1;P1;durP2;ratioP2;P2;SDS_P1;SDS_P2;PMS_P1;PMS_P2;Temp;Humidity;BMP_temperature;BMP_pressure;BME280_temperature;BME280_humidity;BME280_pressure;Samples;Min_cycle;Max_cycle;Signal;HPM_P1;HPM_P2
2021/12/05 00:22:52;;;;;;;35.30;21.95;;;;;;;-1.11;66.76;98861.36;1735417;82;20973;-41
2021/12/05 00:25:25;;;;;;;34.00;22.02;;;;;;;-1.10;66.90;98876.24;1735970;82;21032;-41
2021/12/05 00:28:05;;;;;;;40.17;23.05;;;;;;;-1.04;66.95;98877.20;1735913;82;21167;-41
2021/12/05 00:31:01;;;;;;;37.73;23.80;;;;;;;-0.98;66.85;98880.55;1735635;81;21056;-40
2021/12/05 00:39:08;;;;;;;33.13;21.87;;;;;;;-0.88;66.39;98901.64;1735693;82;21627;-40
2021/12/05 00:46:23;;;;;;;36.90;22.98;;;;;;;-0.79;66.13;98895.87;1735563;82;21082;-41
2021/12/05 00:51:51;;;;;;;33.63;22.37;;;;;;;-0.90;66.14;98885.17;1735831;81;21059;-41
2021/12/05 00:59:38;;;;;;;37.28;22.32;;;;;;;-0.98;66.31;98899.17;1735599;82;21618;-48
2021/12/05 01:15:03;;;;;;;31.07;21.05;;;;;;;-1.09;67.03;98893.25;1735554;82;21048;-40
2021/12/05 01:17:33;;;;;;;35.38;20.70;;;;;;;-1.07;67.00;98896.42;1735460;82;21527;-40
2021/12/05 01:19:59;;;;;;;31.70;21.12;;;;;;;-1.04;66.91;98903.80;1735585;82;21089;-40
2021/12/05 01:22:31;;;;;;;33.05;20.72;;;;;;;-0.99;66.83;98898.92;1735545;81;20949;-41
2021/12/05 01:25:18;;;;;;;32.58;21.33;;;;;;;-0.98;66.92;98905.28;1735644;82;21068;-41
2021/12/05 01:30:09;;;;;;;32.28;20.60;;;;;;;-0.94;66.78;98900.16;1735937;82;21405;-40
2021/12/05 01:33:02;;;;;;;30.65;20.62;;;;;;;-0.94;66.73;98897.50;1734823;82;21090;-40
2021/12/05 01:40:35;;;;;;;35.98;20.45;;;;;;;-1.01;66.49;98887.23;1735687;82;21534;-40
2021/12/05 01:53:31;;;;;;;31.68;19.52;;;;;;;-1.06;66.27;98874.56;1747044;81;21039;-40
2021/12/05 02:33:21;;;;;;;26.48;17.55;;;;;;;-1.28;66.81;98867.81;1748632;81;21059;-40
2021/12/05 02:38:48;;;;;;;29.77;17.40;;;;;;;-1.24;66.99;98858.95;1754327;81;21115;-40
2021/12/05 02:43:29;;;;;;;25.27;17.37;;;;;;;-1.21;66.88;98841.63;1748192;81;21075;-41
2021/12/05 02:45:58;;;;;;;28.90;16.80;;;;;;;-1.25;66.79;98840.62;1753757;81;21036;-40
2021/12/05 02:48:24;;;;;;;27.05;16.67;;;;;;;-1.28;66.75;98826.59;1753765;81;21335;-40
2021/12/05 02:50:50;;;;;;;26.75;17.73;;;;;;;-1.35;66.99;98831.75;1754264;81;21921;-40
2021/12/05 02:53:19;;;;;;;27.75;15.93;;;;;;;-1.32;67.01;98827.73;1751505;81;20925;-40
2021/12/05 02:55:48;;;;;;;25.95;15.93;;;;;;;-1.32;66.96;98819.22;1749742;82;21043;-41
2021/12/05 02:58:32;;;;;;;26.52;16.05;;;;;;;-1.33;67.04;98822.95;1713678;83;21073;-41
2021/12/05 03:03:21;;;;;;;26.55;15.68;;;;;;;-1.36;66.91;98818.23;1713740;83;21131;-41
2021/12/05 03:05:54;;;;;;;26.42;16.23;;;;;;;-1.33;66.81;98816.30;1749778;80;21312;-41
2021/12/05 03:08:20;;;;;;;25.05;16.42;;;;;;;-1.34;66.74;98817.38;1749667;82;21522;-40
2021/12/05 03:10:48;;;;;;;27.60;16.93;;;;;;;-1.33;66.55;98814.18;1749429;82;21079;-40
2021/12/05 03:13:15;;;;;;;23.83;15.93;;;;;;;-1.37;66.38;98813.99;1749691;81;21598;-41
2021/12/05 03:15:42;;;;;;;27.07;16.57;;;;;;;-1.40;66.28;98815.89;1749506;82;21174;-41
2021/12/05 03:18:09;;;;;;;26.87;17.17;;;;;;;-1.43;66.21;98814.37;1749369;82;21034;-40
2021/12/05 03:20:36;;;;;;;28.20;16.75;;;;;;;-1.48;66.10;98812.59;1749573;82;20999;-40
2021/12/05 03:23:03;;;;;;;28.70;16.42;;;;;;;-1.51;66.07;98814.52;1749399;82;21680;-40
2021/12/05 03:25:30;;;;;;;23.90;15.78;;;;;;;-1.55;66.12;98813.50;1720250;82;21068;-41
2021/12/05 03:27:59;;;;;;;25.65;16.12;;;;;;;-1.56;66.12;98807.17;1749393;81;21123;-40
2021/12/05 03:30:27;;;;;;;25.68;17.87;;;;;;;-1.61;66.29;98816.02;1754659;80;21022;-40
2021/12/05 03:32:55;;;;;;;25.32;16.87;;;;;;;-1.64;66.41;98806.50;1780118;80;21051;-40
2021/12/05 03:35:26;;;;;;;27.48;16.35;;;;;;;-1.65;66.45;98803.61;1780356;80;21024;-40
2021/12/05 03:37:54;;;;;;;27.32;16.20;;;;;;;-1.65;66.47;98805.73;1780424;80;21051;-40
2021/12/05 03:40:25;;;;;;;21.87;15.78;;;;;;;-1.64;66.53;98803.84;1780668;80;21153;-41
2021/12/05 03:42:52;;;;;;;27.37;16.75;;;;;;;-1.60;66.55;98804.32;1780214;80;21575;-41
2021/12/05 03:45:26;;;;;;;24.50;16.48;;;;;;;-1.58;66.49;98798.16;1780639;80;21324;-40
2021/12/05 03:47:56;;;;;;;25.32;16.40;;;;;;;-1.52;66.41;98797.52;1780304;80;20936;-41
2021/12/05 03:50:24;;;;;;;25.50;16.00;;;;;;;-1.50;66.31;98806.00;1750497;80;27009;-40
2021/12/05 03:52:51;;;;;;;25.57;16.50;;;;;;;-1.52;66.31;98803.63;1780795;80;21114;-41
2021/12/05 03:55:18;;;;;;;24.82;15.58;;;;;;;-1.50;66.38;98814.74;1782872;80;20980;-40
2021/12/05 03:57:44;;;;;;;24.55;16.10;;;;;;;-1.47;66.30;98818.16;1782860;80;21040;-40
2021/12/05 04:00:20;;;;;;;25.50;16.27;;;;;;;-1.41;66.19;98822.31;1782820;80;21022;-40
2021/12/05 04:02:48;;;;;;;24.05;16.30;;;;;;;-1.42;66.06;98830.03;1779398;80;21640;-40
2021/12/05 04:05:17;;;;;;;24.10;16.12;;;;;;;-1.42;65.86;98820.73;1782465;80;21094;-41
2021/12/05 04:07:45;;;;;;;26.02;16.30;;;;;;;-1.44;65.71;98825.54;1772325;80;20937;-41
2021/12/05 04:10:13;;;;;;;28.98;15.85;;;;;;;-1.42;65.47;98819.94;1751733;81;21054;-41
2021/12/05 04:12:41;;;;;;;23.45;15.40;;;;;;;-1.41;65.32;98821.52;1751629;81;20996;-40
2021/12/05 04:15:10;;;;;;;26.05;15.80;;;;;;;-1.40;65.17;98807.13;1751830;81;21549;-40
2021/12/05 04:17:39;;;;;;;24.12;14.85;;;;;;;-1.43;65.16;98825.00;1751777;81;21099;-40
2021/12/05 04:20:09;;;;;;;24.95;16.35;;;;;;;-1.49;65.19;98821.64;1752009;81;21519;-40
2021/12/05 04:22:36;;;;;;;27.45;16.00;;;;;;;-1.53;65.38;98820.66;1751832;81;20988;-40
2021/12/05 04:25:09;;;;;;;26.05;16.75;;;;;;;-1.52;65.38;98823.56;1751823;81;21543;-40
2021/12/05 04:27:34;;;;;;;22.30;15.23;;;;;;;-1.51;65.43;98833.13;1751455;81;21028;-40
2021/12/05 04:30:02;;;;;;;21.80;15.20;;;;;;;-1.49;65.55;98844.23;1751755;80;21114;-40
2021/12/05 04:32:30;;;;;;;24.70;15.18;;;;;;;-1.46;65.69;98845.00;1782912;80;21031;-40
2021/12/05 04:34:57;;;;;;;22.17;14.73;;;;;;;-1.45;65.67;98845.22;1782707;79;21020;-40
2021/12/05 04:37:25;;;;;;;25.70;15.95;;;;;;;-1.44;65.68;98843.36;1782757;80;21534;-40
2021/12/05 04:39:52;;;;;;;23.07;15.50;;;;;;;-1.46;65.63;98845.00;1766434;80;21047;-40
2021/12/05 04:42:19;;;;;;;24.65;15.15;;;;;;;-1.45;65.49;98854.53;1751932;81;21969;-40
2021/12/05 04:44:46;;;;;;;26.02;15.00;;;;;;;-1.46;65.50;98858.29;1752295;81;21013;-40
2021/12/05 04:47:14;;;;;;;20.15;13.93;;;;;;;-1.42;65.44;98851.30;1751879;81;20988;-41
2021/12/05 04:49:41;;;;;;;24.47;14.00;;;;;;;-1.42;65.42;98855.29;1751858;81;21052;-40
2021/12/05 04:52:10;;;;;;;22.07;14.10;;;;;;;-1.39;65.38;98861.88;1752093;81;21526;-40
2021/12/05 04:54:37;;;;;;;22.52;14.50;;;;;;;-1.40;65.50;98854.44;1738875;81;21047;-40
2021/12/05 04:57:05;;;;;;;23.15;15.03;;;;;;;-1.35;65.41;98862.86;1735682;82;21565;-39
2021/12/05 04:59:36;;;;;;;23.87;15.32;;;;;;;-1.34;65.43;98863.12;1735751;82;21339;-40
2021/12/05 05:02:05;;;;;;;21.00;14.13;;;;;;;-1.28;65.12;98865.94;1713017;82;20953;-40
2021/12/05 05:04:38;;;;;;;21.93;15.48;;;;;;;-1.26;64.92;98864.33;1749817;81;21057;-39
2021/12/05 05:07:08;;;;;;;22.15;14.53;;;;;;;-1.25;64.79;98853.91;1765101;81;21219;-40
2021/12/05 05:09:35;;;;;;;20.97;14.45;;;;;;;-1.27;64.74;98848.12;1766066;81;21044;-40
2021/12/05 05:12:02;;;;;;;23.32;14.50;;;;;;;-1.27;64.61;98834.83;1765850;81;21062;-40
2021/12/05 05:14:28;;;;;;;25.65;15.38;;;;;;;-1.35;64.48;98837.06;1766153;81;21060;-40
2021/12/05 05:16:55;;;;;;;22.32;14.85;;;;;;;-1.35;64.36;98833.62;1765863;81;21048;-40
2021/12/05 05:19:27;;;;;;;22.95;14.28;;;;;;;-1.41;64.26;98831.62;1766044;81;21769;-40
2021/12/05 05:22:06;;;;;;;21.40;13.70;;;;;;;-1.43;64.09;98830.31;1765587;81;21035;-40
2021/12/05 05:43:13;;;;;;;20.90;14.03;;;;;;;-2.09;65.30;98820.02;1766010;81;27242;-40
2021/12/05 05:50:24;;;;;;;24.52;15.30;;;;;;;-2.08;66.00;98838.87;1766045;81;20973;-40
2021/12/05 05:52:50;;;;;;;22.90;14.80;;;;;;;-2.04;66.11;98845.17;1765828;81;21917;-40
2021/12/05 05:55:17;;;;;;;23.30;14.83;;;;;;;-2.04;66.29;98841.98;1783978;80;21028;-40
2021/12/05 05:58:01;;;;;;;25.72;14.53;;;;;;;-1.95;66.12;98844.77;1785283;80;21127;-41
2021/12/05 06:00:28;;;;;;;21.68;14.85;;;;;;;-1.98;66.12;98850.09;1781795;80;21071;-40
2021/12/05 06:05:34;;;;;;;24.87;15.40;;;;;;;-1.91;66.15;98860.36;1785281;80;21036;-40
2021/12/05 06:09:17;;;;;;;23.90;14.98;;;;;;;-1.78;65.90;98861.73;1835505;78;22746;-40
2021/12/05 06:11:43;;;;;;;22.40;14.90;;;;;;;-1.88;66.05;98871.19;1805851;79;20994;-40
2021/12/05 06:14:10;;;;;;;24.07;15.23;;;;;;;-1.85;66.16;98875.16;1805837;79;21114;-40
2021/12/05 06:16:37;;;;;;;21.30;14.43;;;;;;;-1.78;66.12;98876.88;1805646;79;20911;-40
2021/12/05 06:19:04;;;;;;;25.17;14.75;;;;;;;-1.76;66.10;98880.84;1805662;79;20884;-40
2021/12/05 06:21:30;;;;;;;22.73;15.00;;;;;;;-1.69;65.93;98876.47;1805876;79;20966;-40
2021/12/05 06:23:57;;;;;;;23.32;14.75;;;;;;;-1.63;65.87;98878.51;1805945;79;20971;-40
2021/12/05 06:26:25;;;;;;;22.58;14.83;;;;;;;-1.55;65.69;98884.51;1805618;79;21907;-40
2021/12/05 06:29:16;;;;;;;23.40;14.90;;;;;;;-1.51;65.57;98886.29;1805885;79;20951;-40
2021/12/05 06:37:14;;;;;;;20.52;13.95;;;;;;;-1.40;65.21;98895.65;1752891;81;21044;-40
2021/12/05 06:39:42;;;;;;;20.08;14.20;;;;;;;-1.38;65.08;98901.48;1750229;81;21143;-40
2021/12/05 06:42:32;;;;;;;24.15;14.87;;;;;;;-1.34;65.06;98897.15;1750689;81;21029;-40
2021/12/05 06:47:25;;;;;;;20.90;14.23;;;;;;;-1.20;64.87;98900.36;1752806;81;21036;-40
2021/12/05 06:49:52;;;;;;;21.55;13.88;;;;;;;-1.16;64.65;98901.38;1753142;81;21547;-40
2021/12/05 06:52:18;;;;;;;23.10;14.75;;;;;;;-1.15;64.50;98905.05;1752865;81;21087;-41
2021/12/05 06:54:45;;;;;;;23.77;15.20;;;;;;;-1.13;64.46;98902.91;1752758;81;21052;-40
2021/12/05 06:57:11;;;;;;;24.25;15.70;;;;;;;-1.10;64.38;98906.83;1752855;80;21011;-40
2021/12/05 06:59:39;;;;;;;24.47;15.43;;;;;;;-1.07;64.30;98903.06;1753277;81;21472;-40
2021/12/05 07:02:09;;;;;;;22.35;15.00;;;;;;;-1.05;64.22;98910.19;1752773;81;20985;-40
2021/12/05 07:07:24;;;;;;;22.30;14.55;;;;;;;-1.08;64.17;98904.68;1751762;81;21629;-40
2021/12/05 07:09:52;;;;;;;22.25;15.90;;;;;;;-1.13;64.24;98902.91;1742199;82;20962;-40
2021/12/05 07:12:54;;;;;;;24.47;15.68;;;;;;;-1.16;64.25;98902.14;1742595;82;21544;-40
2021/12/05 07:15:09;;;;;;;25.75;16.12;;;;;;;-1.18;64.41;98897.67;1740332;82;21017;-40
2021/12/05 07:20:35;;;;;;;26.80;16.75;;;;;;;-1.25;64.79;98901.24;1741969;82;21056;-40
2021/12/05 07:25:29;;;;;;;24.30;15.98;;;;;;;-1.22;65.30;98907.86;1741797;81;21358;-40
2021/12/05 07:41:48;;;;;;;25.48;15.25;;;;;;;-0.53;64.85;98939.53;1772742;81;20981;-40
2021/12/05 07:44:11;;;;;;;28.23;16.32;;;;;;;-0.39;64.54;98934.22;1771799;80;21479;-41
2021/12/05 07:46:38;;;;;;;24.80;16.55;;;;;;;-0.22;64.44;98934.92;1772507;81;20958;-41
2021/12/05 07:49:09;;;;;;;24.77;15.83;;;;;;;-0.05;63.85;98943.86;1772249;81;21528;-41
2021/12/05 07:51:38;;;;;;;22.60;15.85;;;;;;;0.13;63.66;98945.36;1772250;80;20989;-41
2021/12/05 07:56:39;;;;;;;16.65;12.63;;;;;;;0.50;62.79;98950.89;1772677;81;21880;-41
2021/12/05 08:00:12;;;;;;;24.67;16.37;;;;;;;0.69;62.49;98949.62;1771914;80;21489;-41
2021/12/05 08:15:30;;;;;;;23.07;15.78;;;;;;;2.06;58.97;98959.27;1789370;80;21672;-41
2021/12/05 08:17:54;;;;;;;23.70;16.27;;;;;;;2.13;57.79;98953.67;1788857;79;21000;-41
2021/12/05 08:20:29;;;;;;;20.72;15.20;;;;;;;2.18;57.68;98949.52;1789229;80;21077;-41
2021/12/05 08:22:59;;;;;;;22.52;15.88;;;;;;;2.32;58.19;98949.38;1788232;79;21116;-41
2021/12/05 08:25:29;;;;;;;25.27;16.85;;;;;;;2.49;57.57;98944.56;1789163;79;20977;-41
2021/12/05 08:28:10;;;;;;;23.73;16.17;;;;;;;2.60;57.12;98937.80;1788850;79;21548;-41
2021/12/05 08:30:32;;;;;;;24.65;16.80;;;;;;;2.71;56.61;98933.66;1787211;79;21460;-41
2021/12/05 09:24:35;;;;;;;23.15;16.40;;;;;;;3.94;51.32;98916.44;1782794;80;21040;-41
2021/12/05 10:07:49;;;;;;;21.57;15.72;;;;;;;5.36;48.18;98948.28;1744793;82;21051;-42
2021/12/05 10:10:12;;;;;;;22.35;15.93;;;;;;;5.42;47.38;98938.09;1754720;81;21136;-41
2021/12/05 10:36:27;;;;;;;25.02;16.80;;;;;;;5.07;47.44;98953.83;1789077;79;20986;-42
2021/12/05 10:38:11;;;;;;;23.38;16.23;;;;;;;5.09;47.49;98943.52;1773768;80;21142;-42
2021/12/05 10:40:43;;;;;;;22.60;16.87;;;;;;;5.12;47.64;98940.18;1781584;79;21004;-42
2021/12/05 10:43:17;;;;;;;25.43;17.10;;;;;;;5.16;47.51;98937.05;1788883;79;20942;-41
2021/12/05 10:45:55;;;;;;;24.30;17.67;;;;;;;5.19;47.33;98931.00;1789017;80;20972;-41
2021/12/05 10:48:32;;;;;;;23.85;17.60;;;;;;;5.17;47.59;98925.19;1787625;79;21069;-42
2021/12/05 10:51:18;;;;;;;26.25;17.30;;;;;;;5.06;47.16;98926.73;1789159;80;21518;-41
2021/12/05 10:53:54;;;;;;;24.85;16.87;;;;;;;4.92;47.25;98930.28;1789037;79;21060;-42
2021/12/05 10:56:34;;;;;;;24.45;17.20;;;;;;;4.87;46.65;98920.53;1789279;80;20937;-42
2021/12/05 10:59:10;;;;;;;;;;;;;;;4.78;47.38;98911.23;1791568;79;20957;-42
2021/12/05 11:01:49;;;;;;;24.47;16.42;;;;;;;4.75;47.52;98913.22;1788989;80;20181;-41
2021/12/05 11:04:26;;;;;;;25.57;17.33;;;;;;;4.53;47.45;98912.27;1789088;79;21076;-41
2021/12/05 11:06:57;;;;;;;25.32;16.97;;;;;;;4.41;47.80;98912.20;1788186;79;20957;-41
2021/12/05 11:09:29;;;;;;;21.87;16.37;;;;;;;4.30;48.04;98907.03;1788874;79;21004;-41
2021/12/05 11:12:03;;;;;;;27.07;18.02;;;;;;;4.20;48.02;98901.50;1788942;79;21064;-42
2021/12/05 11:14:33;;;;;;;23.60;16.90;;;;;;;4.18;48.42;98902.93;1789000;79;21060;-42
2021/12/05 11:17:13;;;;;;;24.05;17.65;;;;;;;4.16;48.75;98906.52;1789000;79;21126;-42
2021/12/05 11:20:00;;;;;;;26.00;17.27;;;;;;;4.21;49.34;98909.76;1767251;79;21458;-41
2021/12/05 11:22:30;;;;;;;26.05;17.50;;;;;;;4.19;49.56;98912.55;1789028;80;20956;-42
2021/12/05 11:25:10;;;;;;;25.90;18.17;;;;;;;4.12;49.19;98896.97;1789384;80;20957;-42
2021/12/05 11:27:46;;;;;;;25.27;17.52;;;;;;;3.93;49.14;98896.09;1789346;79;21036;-42
2021/12/05 11:30:30;;;;;;;25.30;18.30;;;;;;;3.74;49.62;98897.09;1788932;79;21833;-42
2021/12/05 11:33:02;;;;;;;25.25;18.27;;;;;;;3.64;49.75;98890.77;1788400;79;21007;-42
2021/12/05 11:35:50;;;;;;;26.30;17.92;;;;;;;3.61;49.87;98892.77;1789382;80;21025;-41
2021/12/05 11:38:20;;;;;;;26.15;17.70;;;;;;;3.63;49.98;98886.51;1788958;79;20997;-41
2021/12/05 11:41:08;;;;;;;26.00;17.62;;;;;;;3.64;50.10;98885.95;1789362;80;20997;-42
2021/12/05 11:43:46;;;;;;;22.93;16.82;;;;;;;3.64;50.18;98892.11;1789292;79;20953;-41
2021/12/05 11:46:30;;;;;;;25.27;17.80;;;;;;;3.57;49.83;98881.68;1788952;79;20926;-41
2021/12/05 11:49:06;;;;;;;24.47;17.07;;;;;;;3.53;49.84;98892.27;1789037;79;20921;-42
2021/12/05 11:51:55;;;;;;;25.80;16.77;;;;;;;3.48;49.63;98889.78;1789213;80;20913;-41
2021/12/05 11:54:29;;;;;;;24.75;16.77;;;;;;;3.37;49.48;98899.28;1789171;80;21076;-42
2021/12/05 11:57:07;;;;;;;24.67;16.62;;;;;;;3.19;49.77;98897.24;1789319;80;21822;-42
2021/12/05 11:59:44;;;;;;;29.40;17.15;;;;;;;3.08;49.81;98908.63;1778762;79;21602;-42
2021/12/05 12:02:19;;;;;;;21.95;16.12;;;;;;;2.95;49.92;98901.80;1789210;80;21047;-41
2021/12/05 12:05:11;;;;;;;25.52;17.15;;;;;;;2.85;49.94;98897.36;1788898;80;20929;-42
2021/12/05 12:07:46;;;;;;;25.15;16.87;;;;;;;2.77;50.16;98902.95;1788855;80;21024;-42
2021/12/05 12:10:35;;;;;;;28.40;17.23;;;;;;;2.69;50.33;98913.14;1788750;80;21089;-42
2021/12/05 12:13:22;;;;;;;24.77;17.37;;;;;;;2.65;50.23;98906.86;1788796;80;21004;-41
2021/12/05 12:15:58;;;;;;;24.05;16.15;;;;;;;2.56;51.06;98899.40;1789016;79;21568;-41
2021/12/05 12:18:27;;;;;;;26.93;17.85;;;;;;;2.47;51.68;98897.30;1788951;79;21002;-42
2021/12/05 12:20:52;;;;;;;24.55;18.15;;;;;;;2.42;51.92;98895.54;1788531;79;21341;-41
2021/12/05 12:23:20;;;;;;;25.72;17.98;;;;;;;2.37;52.29;98898.95;1789480;80;21057;-41
2021/12/05 12:25:51;;;;;;;29.65;19.40;;;;;;;2.27;52.39;98903.28;1788810;80;20957;-41
2021/12/05 12:28:17;;;;;;;27.80;19.75;;;;;;;2.18;52.67;98901.38;1789136;80;21638;-42
2021/12/05 12:30:48;;;;;;;32.08;19.70;;;;;;;2.09;52.96;98903.27;1788952;80;20925;-41
2021/12/05 12:33:25;;;;;;;29.40;19.05;;;;;;;2.09;53.29;98901.94;1789166;80;21550;-41
2021/12/05 12:35:52;;;;;;;29.40;21.23;;;;;;;2.04;53.54;98905.31;1788916;79;21136;-41
2021/12/05 12:38:33;;;;;;;29.37;20.88;;;;;;;1.96;53.18;98905.55;1789210;80;20910;-41
2021/12/05 12:41:22;;;;;;;33.20;21.93;;;;;;;1.94;53.53;98901.60;1783649;79;21004;-42
2021/12/05 12:44:00;;;;;;;30.75;21.93;;;;;;;1.87;53.52;98901.30;1789152;79;21013;-41
2021/12/05 12:46:48;;;;;;;28.90;20.40;;;;;;;1.79;54.11;98906.09;1788419;79;21045;-41
2021/12/05 12:49:21;;;;;;;37.65;21.87;;;;;;;1.72;54.50;98913.22;1789024;79;21118;-41
2021/12/05 12:52:08;;;;;;;35.68;22.42;;;;;;;1.66;54.96;98913.13;1789122;79;20957;-42
2021/12/05 12:54:42;;;;;;;34.48;22.52;;;;;;;1.64;55.25;98908.66;1789001;80;20969;-41
2021/12/05 12:57:26;;;;;;;31.27;20.80;;;;;;;0.92;55.39;98802.27;1789013;80;20953;-42
2021/12/05 13:00:15;;;;;;;31.07;20.90;;;;;;;1.61;55.48;98903.92;1789249;79;21016;-41
2021/12/05 13:05:54;;;;;;;32.95;21.75;;;;;;;1.63;55.28;98919.89;1789046;80;21763;-41
2021/12/05 13:11:16;;;;;;;33.38;21.40;;;;;;;1.70;54.92;98921.55;1788909;80;21516;-41
2021/12/05 13:13:47;;;;;;;36.10;24.23;;;;;;;1.72;55.12;98915.34;1788891;79;21020;-41
2021/12/05 13:16:29;;;;;;;35.05;23.90;;;;;;;1.71;55.79;98908.97;1789234;80;21089;-41
2021/12/05 13:19:09;;;;;;;38.38;24.52;;;;;;;1.66;56.63;98910.45;1788764;79;21558;-41
2021/12/05 13:21:40;;;;;;;38.38;25.75;;;;;;;1.58;57.37;98914.69;1789214;79;21003;-41
2021/12/05 13:24:34;;;;;;;43.80;27.48;;;;;;;1.46;58.32;98901.68;1788857;80;21024;-41
2021/12/05 13:27:06;;;;;;;40.65;25.85;;;;;;;1.36;58.82;98913.43;1788910;80;21024;-41
2021/12/05 13:29:42;;;;;;;37.55;24.95;;;;;;;1.20;59.37;98910.41;1788916;79;21126;-41
2021/12/05 13:32:24;;;;;;;37.17;26.07;;;;;;;1.15;59.74;98919.10;1784720;79;22234;-41
2021/12/05 13:34:51;;;;;;;42.10;25.70;;;;;;;1.09;60.11;98914.44;1788551;79;20984;-41
2021/12/05 13:37:28;;;;;;;42.85;25.95;;;;;;;1.02;60.57;98916.75;1789385;79;20965;-41
2021/12/05 13:40:18;;;;;;;39.53;27.00;;;;;;;0.98;60.77;98917.13;1788763;80;21562;-41
2021/12/05 13:42:51;;;;;;;;;;;;;;;0.95;61.24;98913.75;1791643;79;21175;-41
2021/12/05 13:45:29;;;;;;;39.73;26.95;;;;;;;0.88;61.36;98910.72;1788983;80;20166;-41
2021/12/05 13:48:05;;;;;;;42.13;26.85;;;;;;;0.80;61.77;98920.81;1785094;78;21101;-41
2021/12/05 13:50:57;;;;;;;36.35;25.48;;;;;;;0.80;61.86;98923.48;1782827;80;20980;-41
2021/12/05 13:53:25;;;;;;;;;;;;;;;0.76;62.07;98927.31;1785878;80;21652;-41
2021/12/05 13:56:02;;;;;;;44.93;27.15;;;;;;;0.74;62.33;98927.36;1782908;80;21156;-41
2021/12/05 13:58:40;;;;;;;41.15;27.22;;;;;;;0.62;62.64;98924.48;1782825;80;21000;-41
2021/12/05 14:01:29;;;;;;;41.98;26.77;;;;;;;0.56;62.29;98923.02;1782536;80;21027;-41
2021/12/05 14:04:09;;;;;;;41.73;26.75;;;;;;;0.50;62.19;98930.89;1776953;79;21036;-41
2021/12/05 14:06:54;;;;;;;38.85;25.72;;;;;;;0.44;62.50;98938.22;1782737;80;21254;-41
2021/12/05 14:09:43;;;;;;;40.40;26.77;;;;;;;0.46;62.57;98951.26;1782669;80;21120;-42
2021/12/05 14:12:29;;;;;;;41.08;26.37;;;;;;;0.41;62.71;98956.96;1782612;80;21541;-41
2021/12/05 14:14:59;;;;;;;43.15;27.60;;;;;;;0.40;62.86;98954.05;1782736;79;21044;-42
2021/12/05 14:17:34;;;;;;;47.30;28.05;;;;;;;0.38;63.06;98970.11;1782773;80;21510;-41
2021/12/05 14:20:08;;;;;;;43.90;29.67;;;;;;;0.40;63.00;98966.05;1782614;80;21546;-41
2021/12/05 14:22:36;;;;;;;47.90;29.20;;;;;;;0.40;63.16;98970.59;1782493;80;21848;-41
2021/12/05 14:25:12;;;;;;;44.20;29.30;;;;;;;0.37;63.26;98969.33;1782472;79;21530;-41
2021/12/05 14:27:43;;;;;;;45.28;29.92;;;;;;;0.38;63.31;98961.58;1782770;80;21518;-41
2021/12/05 14:30:14;;;;;;;49.85;30.25;;;;;;;0.32;63.67;98969.98;1781112;80;21023;-41
2021/12/05 14:32:43;;;;;;;44.83;29.57;;;;;;;0.25;63.86;98972.26;1757943;81;21052;-41
2021/12/05 14:35:21;;;;;;;48.25;30.10;;;;;;;0.21;64.01;98978.75;1757679;81;21191;-41
2021/12/05 14:37:49;;;;;;;47.83;30.17;;;;;;;0.18;64.16;98984.69;1757281;81;21589;-41
2021/12/05 14:40:20;;;;;;;47.10;30.17;;;;;;;0.14;64.21;98981.05;1757970;81;21579;-41
2021/12/05 14:42:50;;;;;;;50.35;31.37;;;;;;;0.12;64.20;98989.08;1757960;81;21064;-41
2021/12/05 14:45:23;;;;;;;49.70;30.68;;;;;;;0.08;64.32;98991.56;1758478;81;21039;-41
2021/12/05 14:47:52;;;;;;;50.08;30.75;;;;;;;0.07;64.33;99003.31;1758001;81;21203;-41
2021/12/05 14:50:22;;;;;;;51.00;30.72;;;;;;;0.05;64.45;99006.80;1758129;81;21023;-41
2021/12/05 14:52:53;;;;;;;47.48;30.15;;;;;;;0.12;64.19;99012.53;1758021;81;21546;-41
2021/12/05 14:55:21;;;;;;;49.83;31.33;;;;;;;0.13;64.05;99009.33;1758199;81;21071;-41
2021/12/05 14:57:56;;;;;;;51.23;31.07;;;;;;;0.11;64.01;99021.61;1758028;81;21891;-41
2021/12/05 15:00:37;;;;;;;51.02;30.75;;;;;;;0.08;64.13;99020.09;1757877;81;21657;-41
2021/12/05 15:03:13;;;;;;;48.25;32.10;;;;;;;0.06;63.92;99025.71;1757650;81;20964;-41
2021/12/05 15:05:43;;;;;;;46.80;31.25;;;;;;;0.01;64.20;99027.14;1758062;81;21091;-41
2021/12/05 15:08:14;;;;;;;53.87;31.20;;;;;;;0.00;64.36;99030.92;1757784;81;21025;-41
2021/12/05 15:10:42;;;;;;;50.40;30.35;;;;;;;-0.01;64.41;99034.67;1752581;81;21044;-41
2021/12/05 15:13:10;;;;;;;51.00;30.92;;;;;;;0.04;64.44;99029.23;1742212;82;21881;-40
2021/12/05 15:15:37;;;;;;;45.70;29.42;;;;;;;0.02;64.43;99026.06;1742457;82;21096;-41
2021/12/05 15:18:04;;;;;;;53.90;31.40;;;;;;;-0.04;64.39;99033.91;1742285;82;21020;-41
2021/12/05 15:20:33;;;;;;;51.13;30.72;;;;;;;-0.12;64.64;99033.28;1742418;82;21542;-41
2021/12/05 15:23:03;;;;;;;46.80;30.35;;;;;;;-0.12;64.78;99035.95;1742191;82;21602;-40
2021/12/05 15:25:32;;;;;;;52.98;30.35;;;;;;;-0.13;64.87;99042.36;1742565;82;21090;-41
2021/12/05 15:27:59;;;;;;;49.13;29.95;;;;;;;-0.15;64.95;99029.35;1747814;80;20920;-40
2021/12/05 15:30:29;;;;;;;48.30;29.72;;;;;;;-0.18;65.23;99023.81;1770462;81;21019;-40
2021/12/05 15:32:58;;;;;;;;;;;;;;;-0.20;65.23;99028.66;1773127;81;21047;-41
2021/12/05 15:35:26;;;;;;;51.30;29.18;;;;;;;-0.23;65.46;99023.36;1770734;81;20466;-41
2021/12/05 15:38:00;;;;;;;47.38;30.85;;;;;;;-0.34;65.78;99018.02;1770757;81;21094;-41
2021/12/05 15:40:29;;;;;;;48.73;30.32;;;;;;;-0.26;65.82;99016.52;1770596;81;21392;-40
2021/12/05 15:43:11;;;;;;;49.55;30.35;;;;;;;-0.26;65.77;99011.98;1770843;81;21030;-41
2021/12/05 15:45:39;;;;;;;46.90;29.65;;;;;;;-0.25;65.75;99002.13;1770705;81;21566;-40
2021/12/05 15:48:06;;;;;;;50.50;30.62;;;;;;;-0.28;65.85;99000.83;1770543;81;21495;-41
2021/12/05 15:50:34;;;;;;;51.08;30.85;;;;;;;-0.25;65.82;98990.13;1770638;81;21076;-41
2021/12/05 15:53:10;;;;;;;48.70;29.70;;;;;;;-0.23;65.88;98985.28;1770439;81;20960;-41
2021/12/05 15:55:45;;;;;;;48.10;29.42;;;;;;;-0.27;65.90;98978.98;1770360;81;21015;-41
2021/12/05 15:58:24;;;;;;;50.00;30.20;;;;;;;-0.40;66.22;98970.45;1769444;81;21529;-41
2021/12/05 16:00:58;;;;;;;46.60;28.55;;;;;;;-0.48;66.50;98974.05;1770958;81;21520;-41
2021/12/05 16:03:29;;;;;;;47.10;29.02;;;;;;;-0.59;66.87;98973.22;1770492;81;21077;-41
2021/12/05 16:06:00;;;;;;;45.67;28.07;;;;;;;-0.68;67.26;98967.02;1770169;81;21007;-41
2021/12/05 16:08:30;;;;;;;45.25;27.60;;;;;;;-0.73;67.43;98967.90;1770438;81;21679;-40
2021/12/05 16:10:59;;;;;;;41.37;27.75;;;;;;;-0.82;67.83;98964.31;1772490;80;21043;-41
2021/12/05 16:13:33;;;;;;;48.45;29.82;;;;;;;-0.87;67.98;98968.39;1776076;80;21094;-41
2021/12/05 16:16:09;;;;;;;45.52;27.93;;;;;;;-0.90;68.21;98977.77;1776379;80;21067;-41
2021/12/05 16:18:36;;;;;;;46.70;27.95;;;;;;;-0.94;68.42;98985.30;1770466;80;21055;-41
2021/12/05 16:21:06;;;;;;;49.20;29.02;;;;;;;-0.89;68.39;98991.86;1776155;80;20999;-41
2021/12/05 16:23:35;;;;;;;46.60;28.83;;;;;;;-0.84;68.30;98995.77;1748504;80;20972;-41
2021/12/05 16:26:21;;;;;;;48.02;27.82;;;;;;;-0.80;68.22;98999.42;1776596;80;20988;-41
2021/12/05 16:28:54;;;;;;;51.20;29.37;;;;;;;-0.81;68.25;99003.16;1776076;80;21126;-41
2021/12/05 16:31:31;;;;;;;46.48;27.10;;;;;;;-0.77;68.29;99007.34;1783858;78;21099;-41
2021/12/05 16:34:07;;;;;;;50.03;28.12;;;;;;;-0.79;68.18;98993.02;1785212;80;20972;-41
2021/12/05 16:36:56;;;;;;;48.80;28.30;;;;;;;-0.81;68.33;98997.83;1785194;80;21083;-41
2021/12/05 16:39:37;;;;;;;46.37;28.12;;;;;;;-0.85;68.54;98996.84;1785282;80;21554;-41
2021/12/05 16:42:08;;;;;;;46.35;28.32;;;;;;;-0.92;68.79;99000.45;1785089;80;21114;-41
2021/12/05 16:44:39;;;;;;;47.45;28.75;;;;;;;-0.96;68.98;99011.40;1785231;79;20975;-41
2021/12/05 16:47:12;;;;;;;46.92;29.18;;;;;;;-0.96;69.05;99014.06;1785549;79;21056;-41
2021/12/05 16:49:43;;;;;;;48.33;27.52;;;;;;;-0.94;69.15;99022.55;1785308;80;21027;-41
2021/12/05 16:52:20;;;;;;;46.30;28.12;;;;;;;-0.91;69.10;99016.63;1784975;80;20994;-41
2021/12/05 16:54:57;;;;;;;45.75;27.13;;;;;;;-0.86;69.12;99024.53;1782080;80;21146;-41
2021/12/05 16:57:34;;;;;;;47.62;27.98;;;;;;;-0.78;69.00;99027.88;1785313;79;21132;-41